Terminal Aerodrome Forecast
Issued by NWS

Home | Current Version | Previous Version | Graphics & Text | Print | Product List | Glossary On
Versions: 1 2 3 4 5 6 7 8 9 10 11 12 13 14 15 16 17 18 19 20 21 22 23 24 25 26 27
000
FTUS43 KMPX 301300 AAA
TAFAXN
TAF AMD
KAXN 301349Z 3014/0112 13014G20KT 1 1/2SM BR OVC002
      TEMPO 3014/3016 3SM BR
     FM301600 12018G29KT P6SM SCT004 BKN009 OVC090
     FM301800 13020G28KT P6SM BKN015 OVC070
     FM302100 13021G27KT P6SM -SHRA BKN025 OVC050
      TEMPO 3022/0101 4SM SHRA BR OVC015
     FM010600 13017KT P6SM OVC015
     FM010900 14015KT 5SM BR OVC004=

USA.gov is the U.S. government's official web portal to all federal, state and local government web resources and services.